Time;durP1;ratioP1;P1;durP2;ratioP2;P2;SDS_P1;SDS_P2;PMS_P1;PMS_P2;Temp;Humidity;BMP_temperature;BMP_pressure;BME280_temperature;BME280_humidity;BME280_pressure;Samples;Min_cycle;Max_cycle;Signal;HPM_P1;HPM_P2
2022/07/31 00:00:08;;;;;;;4.05;2.63;;;;;;;24.69;45.26;101815.16;5058896;28;20509;-62
2022/07/31 00:02:37;;;;;;;4.15;3.08;;;;;;;24.67;45.23;101811.03;5061636;28;20403;-62
2022/07/31 00:05:03;;;;;;;4.15;2.83;;;;;;;24.68;45.36;101810.03;5062092;28;20044;-62
2022/07/31 00:07:29;;;;;;;3.60;2.70;;;;;;;24.69;45.24;101807.16;5059876;28;20498;-62
2022/07/31 00:09:55;;;;;;;2.80;2.50;;;;;;;24.65;45.13;101813.06;5069062;28;20118;-62
2022/07/31 00:12:21;;;;;;;6.15;2.78;;;;;;;24.64;45.26;101816.75;5054446;28;20131;-62
2022/07/31 00:14:47;;;;;;;4.32;3.03;;;;;;;24.64;45.50;101812.25;5060457;28;20120;-62
2022/07/31 00:17:13;;;;;;;4.13;2.70;;;;;;;24.70;45.01;101815.97;5042151;28;20045;-62
2022/07/31 00:19:38;;;;;;;4.55;2.53;;;;;;;24.67;45.21;101813.69;5064999;28;20505;-63
2022/07/31 00:22:04;;;;;;;3.30;2.65;;;;;;;24.67;45.24;101811.84;5062101;28;20119;-62
2022/07/31 00:24:29;;;;;;;4.72;2.80;;;;;;;24.56;45.27;101811.50;5063356;28;20036;-62
2022/07/31 00:26:55;;;;;;;3.70;2.78;;;;;;;24.67;45.43;101811.84;5064595;28;20041;-62
2022/07/31 00:29:21;;;;;;;3.42;2.65;;;;;;;24.62;45.33;101808.94;5060622;28;20040;-62
2022/07/31 00:31:47;;;;;;;4.20;2.42;;;;;;;24.66;45.36;101810.22;5046795;28;20039;-62
2022/07/31 00:34:13;;;;;;;2.75;2.55;;;;;;;24.65;45.11;101805.91;5062376;28;20033;-63
2022/07/31 00:36:38;;;;;;;3.50;2.65;;;;;;;24.63;45.49;101807.09;5073067;28;20027;-62
2022/07/31 00:39:04;;;;;;;3.55;2.50;;;;;;;24.71;45.14;101806.97;5054766;28;20125;-62
2022/07/31 00:41:43;;;;;;;5.20;2.83;;;;;;;24.68;45.18;101807.34;5069310;28;20047;-62
2022/07/31 00:44:10;;;;;;;5.28;2.78;;;;;;;24.65;45.32;101805.91;5080006;28;20143;-62
2022/07/31 00:46:36;;;;;;;3.03;2.60;;;;;;;24.65;45.57;101803.22;5066706;28;20028;-62
2022/07/31 00:49:03;;;;;;;4.20;2.67;;;;;;;24.68;45.38;101796.69;5045465;28;20036;-62
2022/07/31 00:51:28;;;;;;;3.30;2.85;;;;;;;24.61;45.29;101799.31;5075990;28;20115;-62
2022/07/31 00:53:54;;;;;;;2.90;2.60;;;;;;;24.62;45.41;101792.97;5065356;28;20664;-63
2022/07/31 00:56:20;;;;;;;4.30;2.95;;;;;;;24.63;45.55;101796.44;5066359;28;20032;-63
2022/07/31 00:58:45;;;;;;;5.68;3.17;;;;;;;24.62;45.33;101792.97;5063234;28;20823;-63
2022/07/31 01:01:11;;;;;;;4.03;2.92;;;;;;;24.61;45.52;101791.31;5056498;28;20116;-62
2022/07/31 01:03:37;;;;;;;3.75;2.80;;;;;;;24.62;45.51;101789.47;5076819;28;20037;-62
2022/07/31 01:06:03;;;;;;;3.55;2.95;;;;;;;24.66;45.51;101788.09;5045293;28;20044;-62
2022/07/31 01:08:28;;;;;;;2.88;2.58;;;;;;;24.64;45.59;101779.47;5051708;28;20144;-62
2022/07/31 01:10:57;;;;;;;3.08;2.78;;;;;;;24.61;45.61;101785.16;5053295;28;20489;-62
2022/07/31 01:13:34;;;;;;;3.97;2.70;;;;;;;24.61;45.58;101780.66;5051067;28;20040;-63
2022/07/31 01:16:03;;;;;;;4.35;2.90;;;;;;;24.65;45.54;101775.78;5061455;28;20028;-62
2022/07/31 01:18:32;;;;;;;3.85;2.72;;;;;;;24.66;45.33;101778.25;5047207;28;20045;-63
2022/07/31 01:21:04;;;;;;;3.33;2.75;;;;;;;24.64;45.61;101772.28;5047143;28;20048;-62
2022/07/31 01:24:05;;;;;;;4.88;2.72;;;;;;;24.67;45.65;101774.56;5040787;28;20029;-62
2022/07/31 01:27:02;;;;;;;3.90;3.00;;;;;;;24.64;45.50;101772.28;5046776;28;20044;-62
2022/07/31 01:29:45;;;;;;;3.75;2.95;;;;;;;24.60;45.59;101773.69;5045193;28;20529;-62
2022/07/31 01:32:31;;;;;;;3.03;2.72;;;;;;;24.60;45.65;101765.69;5039073;28;20041;-62
2022/07/31 01:35:08;;;;;;;4.15;2.58;;;;;;;24.62;45.57;101761.00;5077430;28;20036;-62
2022/07/31 01:37:44;;;;;;;2.90;2.60;;;;;;;24.59;45.65;101753.38;5047944;28;20035;-62
2022/07/31 01:40:15;;;;;;;3.95;2.65;;;;;;;24.60;45.76;101749.72;5047116;28;20066;-62
2022/07/31 01:42:49;;;;;;;3.33;2.60;;;;;;;24.60;45.80;101754.22;5050282;28;20055;-62
2022/07/31 01:45:19;;;;;;;3.42;2.50;;;;;;;24.62;45.65;101742.38;5049035;28;20029;-62
2022/07/31 01:47:46;;;;;;;4.35;2.80;;;;;;;24.61;45.69;101742.56;5043886;28;20032;-62
2022/07/31 01:50:13;;;;;;;4.57;2.47;;;;;;;24.60;45.59;101743.56;5043813;28;20036;-62
2022/07/31 01:52:42;;;;;;;4.32;2.83;;;;;;;24.55;45.69;101733.47;5051509;28;20509;-62
2022/07/31 01:55:09;;;;;;;2.92;2.40;;;;;;;24.60;45.76;101740.91;5048109;28;20029;-62
2022/07/31 01:57:37;;;;;;;3.42;2.72;;;;;;;24.61;45.60;101737.22;5065825;28;20047;-63
2022/07/31 02:00:07;;;;;;;3.05;2.42;;;;;;;24.55;45.77;101743.28;5041252;28;20044;-62
2022/07/31 02:02:42;;;;;;;3.05;2.42;;;;;;;24.53;45.79;101737.34;5048575;28;20075;-62
2022/07/31 02:05:10;;;;;;;3.40;2.50;;;;;;;24.55;45.80;101744.13;5044008;28;20032;-62
2022/07/31 02:07:39;;;;;;;3.78;2.55;;;;;;;24.58;45.68;101745.56;5045640;28;20068;-62
2022/07/31 02:10:08;;;;;;;4.85;2.45;;;;;;;24.56;45.89;101751.09;5048508;28;20047;-62
2022/07/31 02:12:36;;;;;;;3.75;2.60;;;;;;;24.57;45.83;101757.25;5062596;28;20123;-62
2022/07/31 02:15:08;;;;;;;3.20;2.60;;;;;;;24.54;45.76;101750.47;5044987;28;20067;-63
2022/07/31 02:17:37;;;;;;;3.00;2.58;;;;;;;24.49;45.82;101746.72;5080303;28;20028;-63
2022/07/31 02:20:26;;;;;;;3.80;2.63;;;;;;;24.52;45.72;101749.00;5059167;28;20577;-62
2022/07/31 02:22:54;;;;;;;3.88;2.55;;;;;;;24.52;45.88;101743.69;5045110;28;20032;-62
2022/07/31 02:25:20;;;;;;;3.05;2.75;;;;;;;24.55;45.82;101736.13;5051570;28;20435;-62
2022/07/31 02:27:46;;;;;;;4.38;2.83;;;;;;;24.57;45.63;101738.59;5049864;28;20043;-62
2022/07/31 02:30:14;;;;;;;3.47;2.65;;;;;;;24.56;45.67;101743.09;5045212;28;20040;-62
2022/07/31 02:32:44;;;;;;;4.13;2.78;;;;;;;24.49;45.81;101742.22;5041071;28;20406;-62
2022/07/31 02:35:14;;;;;;;4.82;2.97;;;;;;;24.51;45.76;101739.38;5044339;28;20387;-62
2022/07/31 02:37:41;;;;;;;2.75;2.50;;;;;;;24.53;45.77;101737.34;5047447;28;20122;-62
2022/07/31 02:40:08;;;;;;;3.10;2.80;;;;;;;24.54;45.77;101731.00;5046796;28;20040;-62
2022/07/31 02:42:35;;;;;;;3.35;2.50;;;;;;;24.54;45.62;101728.34;5060765;28;20036;-62
2022/07/31 02:45:01;;;;;;;3.13;2.60;;;;;;;24.52;45.84;101725.03;5045448;28;20038;-62
2022/07/31 02:47:30;;;;;;;4.30;3.00;;;;;;;24.56;45.54;101729.78;5048020;28;20389;-62
2022/07/31 02:49:58;;;;;;;3.53;2.60;;;;;;;24.52;45.73;101725.03;5043548;28;20036;-62
2022/07/31 02:52:25;;;;;;;3.00;2.60;;;;;;;24.53;45.76;101714.19;5062821;28;20040;-62
2022/07/31 02:54:51;;;;;;;3.35;2.85;;;;;;;24.53;45.71;101711.53;5043813;28;20182;-62
2022/07/31 02:57:17;;;;;;;2.88;2.58;;;;;;;24.48;45.72;101713.13;5049112;28;20123;-62
2022/07/31 02:59:43;;;;;;;4.43;2.60;;;;;;;24.48;45.53;101707.78;5050450;28;20625;-62
2022/07/31 03:02:09;;;;;;;4.50;2.80;;;;;;;24.50;45.71;101705.78;5045104;28;20066;-62
2022/07/31 03:04:41;;;;;;;4.47;2.70;;;;;;;24.50;45.75;101705.78;5044759;28;20052;-62
2022/07/31 03:07:08;;;;;;;3.17;2.83;;;;;;;24.50;45.73;101701.25;5049363;28;20793;-62
2022/07/31 03:09:34;;;;;;;3.58;3.20;;;;;;;24.52;45.66;101698.41;5045111;28;20028;-63
2022/07/31 03:12:18;;;;;;;3.15;2.85;;;;;;;24.52;45.59;101693.09;5062582;28;20516;-62
2022/07/31 03:14:44;;;;;;;3.13;2.72;;;;;;;24.50;45.71;101690.63;5045461;28;20032;-62
2022/07/31 03:17:10;;;;;;;4.13;2.92;;;;;;;24.50;45.53;101695.94;5048590;28;20039;-62
2022/07/31 03:19:36;;;;;;;4.18;3.28;;;;;;;24.53;45.55;101700.06;5043558;28;20370;-62
2022/07/31 03:22:02;;;;;;;4.13;2.78;;;;;;;24.51;45.56;101684.28;5046993;28;20536;-62
2022/07/31 03:24:28;;;;;;;3.38;2.67;;;;;;;24.46;45.75;101684.03;5045659;28;20036;-63
2022/07/31 03:26:54;;;;;;;3.13;2.63;;;;;;;24.48;45.62;101683.84;5044563;28;20096;-63
2022/07/31 03:29:19;;;;;;;5.88;3.05;;;;;;;24.48;45.51;101684.66;5045623;28;20036;-62
2022/07/31 03:31:45;;;;;;;2.60;2.40;;;;;;;24.43;45.47;101683.59;5047966;28;20111;-62
2022/07/31 03:34:12;;;;;;;3.72;2.80;;;;;;;24.46;45.77;101688.53;5060183;28;20448;-62
2022/07/31 03:36:38;;;;;;;4.65;2.83;;;;;;;24.42;45.76;101685.44;5058424;28;20498;-62
2022/07/31 03:39:04;;;;;;;3.05;2.50;;;;;;;24.47;45.69;101668.88;5047465;28;20048;-62
2022/07/31 03:41:39;;;;;;;3.08;2.70;;;;;;;24.47;45.67;101676.88;5047421;28;20131;-62
2022/07/31 03:44:05;;;;;;;3.47;2.65;;;;;;;24.49;45.63;101680.97;5063933;28;20118;-62
2022/07/31 03:46:31;;;;;;;2.72;2.53;;;;;;;24.43;45.73;101680.94;5064044;28;20119;-62
2022/07/31 03:48:57;;;;;;;4.38;2.97;;;;;;;24.41;45.81;101667.78;5075653;28;20067;-62
2022/07/31 03:51:25;;;;;;;2.75;2.55;;;;;;;24.42;45.71;101669.47;5047746;28;20053;-61
2022/07/31 03:53:51;;;;;;;3.63;3.00;;;;;;;24.45;45.85;101674.41;5043547;28;20076;-61
2022/07/31 03:56:46;;;;;;;2.88;2.53;;;;;;;24.46;45.75;101664.56;5060839;28;20036;-61
2022/07/31 03:59:15;;;;;;;3.05;2.75;;;;;;;24.40;45.79;101660.81;5072826;28;20052;-61
2022/07/31 04:01:41;;;;;;;3.33;2.78;;;;;;;24.46;45.73;101661.91;5058639;28;20051;-61
2022/07/31 04:04:12;;;;;;;3.05;2.72;;;;;;;24.41;45.64;101657.94;5043094;28;20399;-61
2022/07/31 04:06:52;;;;;;;;;;;;;;;24.42;45.67;101661.47;5042416;28;20047;-61
2022/07/31 04:09:21;;;;;;;3.35;2.72;;;;;;;24.42;45.79;101666.78;5045618;28;20393;-61
2022/07/31 04:11:47;;;;;;;3.88;3.00;;;;;;;24.46;45.75;101675.22;5029316;28;20444;-61
2022/07/31 04:14:13;;;;;;;3.20;2.90;;;;;;;24.44;45.70;101663.94;5049566;28;20028;-61
2022/07/31 04:16:39;;;;;;;3.15;2.60;;;;;;;24.44;45.71;101672.75;5052627;28;20059;-61
2022/07/31 04:19:05;;;;;;;3.35;2.58;;;;;;;24.41;45.74;101678.44;5049523;28;20041;-61
2022/07/31 04:21:30;;;;;;;3.38;2.88;;;;;;;24.45;45.43;101671.72;5032484;28;20036;-61
2022/07/31 04:23:56;;;;;;;3.67;2.60;;;;;;;24.38;45.73;101676.97;5050492;28;20040;-61
2022/07/31 04:26:42;;;;;;;9.88;3.03;;;;;;;24.47;45.62;101676.88;5056353;28;20394;-61
2022/07/31 04:29:08;;;;;;;3.85;2.92;;;;;;;24.48;45.47;101674.00;5053801;28;20516;-61
2022/07/31 04:31:35;;;;;;;4.82;2.90;;;;;;;24.44;45.51;101674.59;5047997;28;20581;-61
2022/07/31 04:34:02;;;;;;;4.18;2.70;;;;;;;24.43;45.56;101670.28;5049721;28;20762;-61
2022/07/31 04:36:27;;;;;;;3.97;2.58;;;;;;;24.47;45.34;101674.19;5053289;28;20063;-62
2022/07/31 04:38:53;;;;;;;3.10;2.80;;;;;;;24.43;45.55;101671.09;5045198;28;20037;-61
2022/07/31 04:41:19;;;;;;;3.10;2.80;;;;;;;24.45;45.49;101666.41;5055137;28;20126;-61
2022/07/31 04:43:45;;;;;;;3.38;2.70;;;;;;;24.46;45.23;101662.72;5047871;28;20028;-61
2022/07/31 04:46:10;;;;;;;3.00;2.67;;;;;;;24.45;45.45;101670.91;5072173;28;20474;-61
2022/07/31 04:48:36;;;;;;;4.95;2.90;;;;;;;24.41;45.55;101660.63;5047959;28;20041;-61
2022/07/31 04:51:02;;;;;;;3.55;2.85;;;;;;;24.52;45.26;101659.28;5044724;28;20463;-61
2022/07/31 04:53:27;;;;;;;5.18;3.28;;;;;;;24.46;45.42;101656.59;5057839;28;20041;-61
2022/07/31 04:58:37;;;;;;;3.33;2.70;;;;;;;24.40;45.40;101648.31;5069468;28;20050;-61
2022/07/31 05:01:03;;;;;;;3.33;2.38;;;;;;;24.45;45.42;101652.28;5048868;28;20060;-61
2022/07/31 05:03:29;;;;;;;5.07;2.80;;;;;;;24.43;45.48;101648.97;5077147;28;20674;-61
2022/07/31 05:05:55;;;;;;;3.03;2.60;;;;;;;24.39;45.57;101652.00;5046159;28;20032;-61
2022/07/31 05:08:20;;;;;;;3.42;2.83;;;;;;;24.40;45.58;101644.84;5054398;28;20036;-61
2022/07/31 05:13:32;;;;;;;4.93;3.00;;;;;;;24.40;45.63;101645.66;5048298;28;20094;-61
2022/07/31 05:15:57;;;;;;;2.90;2.60;;;;;;;24.46;45.57;101643.28;5050725;28;20048;-61
2022/07/31 05:18:23;;;;;;;4.40;2.72;;;;;;;24.47;45.47;101648.41;5044172;28;20052;-61
2022/07/31 05:20:57;;;;;;;3.83;2.80;;;;;;;24.46;45.44;101644.09;5070753;28;20113;-61
2022/07/31 05:23:36;;;;;;;4.03;2.72;;;;;;;24.46;45.12;101644.09;5055592;28;20054;-61
2022/07/31 05:26:28;;;;;;;3.47;2.75;;;;;;;24.43;45.55;101638.34;5063018;28;20123;-61
2022/07/31 05:28:56;;;;;;;3.53;2.70;;;;;;;24.43;45.50;101648.97;5050963;28;20036;-61
2022/07/31 05:31:22;;;;;;;2.67;2.47;;;;;;;24.43;45.28;101641.81;5044347;28;20509;-61
2022/07/31 05:33:50;;;;;;;4.68;2.83;;;;;;;24.44;45.45;101639.97;5045876;28;20045;-61
2022/07/31 05:36:16;;;;;;;3.30;2.75;;;;;;;24.39;45.41;101636.03;5029175;28;20078;-61
2022/07/31 05:38:42;;;;;;;3.17;2.83;;;;;;;24.44;45.34;101629.31;5052318;28;20528;-61
2022/07/31 05:41:27;;;;;;;2.70;2.50;;;;;;;24.44;45.42;101634.66;5062457;28;20120;-62
2022/07/31 05:43:52;;;;;;;3.42;2.70;;;;;;;24.39;45.52;101628.03;5072447;28;20048;-61
2022/07/31 05:46:23;;;;;;;4.47;3.08;;;;;;;24.38;45.57;101626.41;5050388;28;20063;-61
2022/07/31 05:48:48;;;;;;;3.75;2.80;;;;;;;24.41;45.58;101623.34;5051086;28;20033;-61
2022/07/31 05:51:14;;;;;;;2.88;2.47;;;;;;;24.43;45.67;101627.69;5049042;28;20658;-61
2022/07/31 05:53:40;;;;;;;4.05;3.28;;;;;;;24.38;45.65;101620.25;5051331;28;20036;-61
2022/07/31 05:56:26;;;;;;;4.72;2.88;;;;;;;24.38;45.62;101617.59;5062467;28;20128;-61
2022/07/31 05:58:53;;;;;;;3.60;2.88;;;;;;;24.43;45.48;101619.69;5071375;28;20628;-61
2022/07/31 06:01:19;;;;;;;3.45;2.78;;;;;;;24.46;45.53;101620.13;5048949;28;20053;-61
2022/07/31 06:03:44;;;;;;;4.32;2.90;;;;;;;24.42;45.67;101621.53;5037045;28;20040;-61
2022/07/31 06:06:17;;;;;;;3.50;3.00;;;;;;;24.41;45.49;101623.34;5053111;28;20063;-61
2022/07/31 06:08:43;;;;;;;4.82;3.28;;;;;;;24.39;45.53;101617.38;5047367;28;21007;-61
2022/07/31 06:11:09;;;;;;;3.17;2.67;;;;;;;24.44;45.51;101618.69;5045487;28;20040;-61
2022/07/31 06:13:35;;;;;;;5.85;3.15;;;;;;;24.45;45.57;101626.47;5041874;28;20074;-61
2022/07/31 06:16:14;;;;;;;4.93;3.22;;;;;;;24.40;45.55;101627.03;5040713;28;20454;-61
2022/07/31 06:18:41;;;;;;;4.32;3.22;;;;;;;24.40;45.50;101620.88;5040350;28;20039;-61
2022/07/31 06:21:06;;;;;;;3.55;3.10;;;;;;;24.45;45.65;101626.47;5059141;28;20120;-61
2022/07/31 06:23:32;;;;;;;12.02;4.00;;;;;;;24.39;45.36;101617.38;5045834;28;20036;-61
2022/07/31 06:26:12;;;;;;;5.15;2.97;;;;;;;24.42;45.43;101626.88;5036013;28;20113;-61
2022/07/31 06:28:38;;;;;;;4.60;2.85;;;;;;;24.36;45.59;101609.78;5039409;28;20771;-61
2022/07/31 06:31:04;;;;;;;4.20;3.10;;;;;;;24.33;45.67;101610.19;5043279;28;20544;-61
2022/07/31 06:33:29;;;;;;;3.38;2.70;;;;;;;24.34;45.61;101619.00;5044320;28;20040;-61
2022/07/31 06:35:55;;;;;;;5.15;2.97;;;;;;;24.38;45.61;101620.25;5045452;28;20040;-61
2022/07/31 06:38:38;;;;;;;3.13;2.80;;;;;;;24.35;45.59;101607.31;5041271;28;20037;-61
2022/07/31 06:44:25;;;;;;;4.63;2.88;;;;;;;24.38;45.65;101613.09;5059515;28;20067;-61
2022/07/31 06:47:09;;;;;;;4.20;2.90;;;;;;;24.37;45.57;101607.94;5065372;28;20478;-61
2022/07/31 06:49:50;;;;;;;3.38;3.05;;;;;;;24.35;45.63;101604.66;5067244;28;20064;-61
2022/07/31 06:52:16;;;;;;;4.47;3.00;;;;;;;24.38;45.61;101598.94;5054254;28;20062;-61
2022/07/31 06:54:42;;;;;;;4.13;3.30;;;;;;;24.39;45.73;101601.41;5051363;28;20024;-61
2022/07/31 06:57:09;;;;;;;5.72;3.10;;;;;;;24.39;45.57;101596.09;5046823;28;20662;-61
2022/07/31 06:59:34;;;;;;;8.43;3.15;;;;;;;24.31;45.94;101601.56;5044763;28;20160;-61
2022/07/31 07:02:00;;;;;;;6.32;3.00;;;;;;;24.38;45.78;101586.47;5043586;28;20528;-61
2022/07/31 07:04:26;;;;;;;5.50;3.22;;;;;;;24.41;45.64;101585.25;5049264;28;20032;-61
2022/07/31 07:06:51;;;;;;;3.42;2.70;;;;;;;24.44;45.56;101584.06;5055739;28;20089;-62
2022/07/31 07:09:17;;;;;;;3.33;2.92;;;;;;;24.33;45.81;101586.22;5049912;28;20043;-62
2022/07/31 07:11:46;;;;;;;6.25;2.97;;;;;;;24.36;45.91;101582.34;5074543;28;20047;-62
2022/07/31 07:14:12;;;;;;;4.22;3.28;;;;;;;24.41;45.89;101577.25;5037946;28;20429;-61
2022/07/31 07:16:38;;;;;;;7.10;3.38;;;;;;;24.36;45.92;101574.38;5052850;28;20040;-61
2022/07/31 07:19:04;;;;;;;5.72;3.15;;;;;;;24.13;46.53;101560.41;5051654;28;20040;-61
2022/07/31 07:21:30;;;;;;;3.67;2.85;;;;;;;24.30;46.11;101572.47;5050615;28;20032;-62
2022/07/31 07:23:56;;;;;;;8.80;3.85;;;;;;;24.41;45.91;101574.59;5046589;28;20044;-61
2022/07/31 07:26:33;;;;;;;4.95;3.30;;;;;;;24.44;45.91;101565.44;5053062;28;20033;-61
2022/07/31 07:29:01;;;;;;;6.55;3.13;;;;;;;24.49;45.84;101565.69;5041891;28;20072;-62
2022/07/31 07:31:28;;;;;;;4.55;4.03;;;;;;;24.45;45.67;101561.75;5027340;28;20413;-62
2022/07/31 07:33:55;;;;;;;7.35;4.20;;;;;;;24.44;45.41;101560.13;5045342;28;20600;-62
2022/07/31 07:36:22;;;;;;;7.75;4.38;;;;;;;24.28;45.47;101566.50;5055135;28;20051;-62
2022/07/31 07:38:48;;;;;;;6.85;4.32;;;;;;;24.22;45.71;101560.06;5046754;28;20037;-62
2022/07/31 07:41:14;;;;;;;8.30;4.28;;;;;;;24.15;45.80;101559.22;5051377;28;20370;-62
2022/07/31 07:43:42;;;;;;;4.78;4.00;;;;;;;24.00;46.49;101551.28;5049272;28;20044;-62
2022/07/31 07:46:08;;;;;;;6.07;4.43;;;;;;;24.13;46.07;101550.59;5074480;28;20036;-62
2022/07/31 07:48:36;;;;;;;5.28;4.28;;;;;;;23.98;46.46;101539.19;5047575;28;20028;-62
2022/07/31 07:51:14;;;;;;;7.72;4.30;;;;;;;24.07;46.35;101544.22;5061573;28;20110;-62
2022/07/31 07:54:05;;;;;;;11.27;4.25;;;;;;;23.97;46.63;101550.84;5061304;28;20105;-62
2022/07/31 07:56:51;;;;;;;5.82;3.70;;;;;;;24.16;46.16;101557.38;5048802;28;20490;-62
2022/07/31 07:59:35;;;;;;;6.43;4.60;;;;;;;24.26;45.98;101553.38;5064131;28;20068;-62
2022/07/31 08:02:35;;;;;;;6.97;4.03;;;;;;;24.19;45.92;101541.84;4999608;28;20092;-62
2022/07/31 08:05:01;;;;;;;8.10;3.72;;;;;;;24.23;46.29;101547.59;5034404;28;20788;-61
2022/07/31 08:07:28;;;;;;;7.70;3.92;;;;;;;24.25;46.54;101551.75;5063729;28;20052;-62
2022/07/31 08:09:55;;;;;;;4.32;3.88;;;;;;;24.40;46.09;101551.66;5038619;28;20033;-62
2022/07/31 08:12:39;;;;;;;4.63;3.75;;;;;;;24.41;46.12;101548.81;5059566;28;20055;-62
2022/07/31 08:15:05;;;;;;;5.30;3.00;;;;;;;24.43;45.91;101553.16;5061190;28;20048;-62
2022/07/31 08:18:07;;;;;;;3.95;3.33;;;;;;;24.37;46.08;101544.88;5046599;28;20059;-62
2022/07/31 08:20:35;;;;;;;5.13;3.40;;;;;;;24.50;46.05;101540.69;5045973;28;20068;-62
2022/07/31 08:23:00;;;;;;;5.55;3.38;;;;;;;24.38;46.15;101543.88;5039659;28;20122;-62
2022/07/31 08:25:26;;;;;;;5.65;3.33;;;;;;;24.47;46.40;101543.75;5045249;28;20044;-62
2022/07/31 08:27:52;;;;;;;4.03;3.33;;;;;;;24.42;46.16;101539.00;5045033;28;20074;-62
2022/07/31 08:30:17;;;;;;;6.22;3.45;;;;;;;24.52;46.10;101547.47;5059688;28;20548;-62
2022/07/31 08:32:43;;;;;;;5.43;3.20;;;;;;;24.45;46.00;101543.13;5044693;28;20090;-62
2022/07/31 08:35:27;;;;;;;5.97;3.20;;;;;;;24.52;46.03;101552.78;5060816;28;20044;-62
2022/07/31 08:37:52;;;;;;;4.72;3.20;;;;;;;24.51;46.22;101551.16;5060931;28;20048;-61
2022/07/31 08:40:20;;;;;;;5.25;3.22;;;;;;;24.47;46.14;101555.22;5045437;28;20054;-61
2022/07/31 08:42:46;;;;;;;4.93;3.45;;;;;;;24.52;46.06;101555.47;5056267;28;20137;-61
2022/07/31 08:45:12;;;;;;;7.32;3.20;;;;;;;24.53;45.98;101558.94;5043783;28;20075;-61
2022/07/31 08:47:46;;;;;;;4.75;3.28;;;;;;;24.57;45.84;101562.84;5045517;28;20035;-62
2022/07/31 08:50:16;;;;;;;4.25;3.10;;;;;;;24.49;46.11;101561.16;5040011;28;20076;-62
2022/07/31 08:52:44;;;;;;;4.30;3.08;;;;;;;24.52;46.09;101563.44;5041563;28;20148;-62
2022/07/31 08:55:27;;;;;;;4.93;3.38;;;;;;;24.45;46.18;101559.09;5043946;28;20619;-62
2022/07/31 08:57:53;;;;;;;3.90;3.50;;;;;;;24.55;45.96;101567.56;5045420;28;20040;-62
2022/07/31 09:00:21;;;;;;;5.93;3.47;;;;;;;24.57;45.88;101568.19;5057543;28;20463;-62
2022/07/31 09:02:47;;;;;;;4.15;3.75;;;;;;;24.56;45.90;101572.69;5059539;28;20386;-62
2022/07/31 09:05:34;;;;;;;4.88;3.20;;;;;;;24.54;45.92;101566.72;5088307;28;20087;-62
2022/07/31 09:07:59;;;;;;;5.82;3.17;;;;;;;24.52;46.06;101570.59;5051883;28;20048;-62
2022/07/31 09:10:27;;;;;;;3.92;3.53;;;;;;;24.51;46.34;101568.97;5049067;28;20115;-62
2022/07/31 09:12:54;;;;;;;4.05;3.10;;;;;;;24.57;46.26;101565.53;5047457;28;20033;-62
2022/07/31 09:15:21;;;;;;;5.68;3.60;;;;;;;24.58;46.26;101575.16;5048313;28;20036;-62
2022/07/31 09:17:47;;;;;;;5.28;3.85;;;;;;;24.57;46.27;101566.34;5077282;28;20123;-62
2022/07/31 09:20:19;;;;;;;5.28;3.25;;;;;;;24.54;46.51;101569.41;5059922;28;20040;-63
2022/07/31 09:22:45;;;;;;;4.63;3.65;;;;;;;24.54;46.70;101569.41;5066375;28;20059;-62
2022/07/31 09:25:15;;;;;;;5.10;3.15;;;;;;;24.54;46.71;101568.56;5046996;28;20041;-61
2022/07/31 09:27:41;;;;;;;5.07;3.97;;;;;;;24.61;46.45;101559.63;5061425;28;20029;-62
2022/07/31 09:30:07;;;;;;;4.88;3.65;;;;;;;24.57;46.60;101566.34;5061423;28;20043;-62
2022/07/31 09:33:16;;;;;;;5.32;3.80;;;;;;;24.66;46.08;101562.53;5060548;28;20044;-61
2022/07/31 09:36:00;;;;;;;6.97;3.35;;;;;;;24.60;46.37;101567.81;5063712;28;20094;-62
2022/07/31 09:38:33;;;;;;;4.55;3.60;;;;;;;24.54;46.65;101565.91;5046929;28;20036;-62
2022/07/31 09:41:37;;;;;;;3.75;3.30;;;;;;;24.67;46.06;101566.00;5067955;28;20048;-61
2022/07/31 09:44:05;;;;;;;3.20;2.90;;;;;;;24.62;46.49;101561.28;5046885;28;20036;-61
2022/07/31 09:46:43;;;;;;;4.43;3.20;;;;;;;24.68;46.40;101559.66;5046394;28;20090;-62
2022/07/31 09:49:09;;;;;;;4.60;3.28;;;;;;;24.60;46.67;101565.16;5046442;28;20135;-62
2022/07/31 09:51:47;;;;;;;3.58;3.22;;;;;;;24.57;46.90;101555.69;5046151;28;20028;-61
2022/07/31 09:54:23;;;;;;;4.38;3.35;;;;;;;24.64;46.87;101556.59;5056008;28;20033;-62
2022/07/31 09:57:09;;;;;;;4.80;3.38;;;;;;;24.57;47.21;101562.84;5067783;28;20072;-62
2022/07/31 09:59:36;;;;;;;5.43;3.60;;;;;;;24.63;46.89;101564.75;5048296;28;20048;-62
2022/07/31 10:02:04;;;;;;;4.70;3.22;;;;;;;24.60;46.96;101555.31;5046817;28;20403;-62
2022/07/31 10:04:30;;;;;;;3.58;3.10;;;;;;;24.56;47.44;101551.38;5047156;28;20825;-63
2022/07/31 10:06:57;;;;;;;5.18;3.38;;;;;;;24.60;47.24;101551.84;5029384;28;20033;-62
2022/07/31 10:09:24;;;;;;;4.88;3.72;;;;;;;24.57;47.41;101550.38;5039505;28;20041;-62
2022/07/31 10:12:16;;;;;;;4.60;3.40;;;;;;;24.63;47.31;101549.59;5064997;28;20044;-61
2022/07/31 10:14:43;;;;;;;4.22;3.75;;;;;;;24.61;47.53;101551.66;5047146;28;20044;-62
2022/07/31 10:17:11;;;;;;;6.07;4.07;;;;;;;24.59;47.69;101552.84;5047827;28;20120;-62
2022/07/31 10:20:04;;;;;;;5.55;3.78;;;;;;;24.55;47.96;101548.91;5062763;28;20052;-62
2022/07/31 10:22:52;;;;;;;5.43;3.75;;;;;;;24.63;47.85;101549.59;5046621;28;20388;-63
2022/07/31 10:25:26;;;;;;;5.05;3.72;;;;;;;24.61;47.89;101545.50;5047488;28;20029;-62
2022/07/31 10:27:55;;;;;;;5.45;3.75;;;;;;;24.65;47.73;101544.09;5044528;28;20493;-62
2022/07/31 10:30:22;;;;;;;4.07;3.67;;;;;;;24.63;48.04;101541.63;5041897;28;20536;-62
2022/07/31 10:32:53;;;;;;;5.60;3.50;;;;;;;24.65;47.86;101538.75;5042932;28;20632;-62
2022/07/31 10:35:26;;;;;;;5.47;3.92;;;;;;;24.59;48.16;101536.84;5063337;28;20050;-62
2022/07/31 10:38:39;;;;;;;4.70;3.63;;;;;;;24.62;48.00;101534.66;5047810;28;20097;-62
2022/07/31 10:41:55;;;;;;;4.15;3.67;;;;;;;24.70;47.85;101525.69;5057184;28;20449;-62
2022/07/31 10:44:32;;;;;;;5.22;3.80;;;;;;;24.62;48.41;101528.50;5041914;28;20048;-62
2022/07/31 10:47:17;;;;;;;4.15;3.58;;;;;;;24.62;48.03;101525.84;5053042;28;20314;-62
2022/07/31 10:50:06;;;;;;;4.78;3.63;;;;;;;24.60;48.79;101522.56;5063459;28;20513;-62
2022/07/31 10:53:11;;;;;;;6.20;3.70;;;;;;;24.60;48.62;101517.22;5057034;28;20059;-61
2022/07/31 10:56:01;;;;;;;4.20;3.80;;;;;;;24.67;48.52;101513.56;5060261;28;20063;-62
2022/07/31 10:58:51;;;;;;;4.78;3.85;;;;;;;24.58;48.87;101508.59;5061934;28;20048;-62
2022/07/31 11:01:50;;;;;;;4.55;3.65;;;;;;;24.63;48.85;101504.34;5057245;28;20045;-62
2022/07/31 11:04:35;;;;;;;6.10;3.50;;;;;;;24.60;48.92;101517.22;5061358;28;20044;-62
2022/07/31 11:07:24;;;;;;;;;;;;;;;24.76;48.58;101514.22;5060353;28;20032;-62
2022/07/31 11:10:18;;;;;;;5.82;3.60;;;;;;;24.59;48.80;101512.88;5037106;28;19932;-62
2022/07/31 11:13:21;;;;;;;7.07;3.90;;;;;;;24.43;48.81;101516.69;4944250;28;20929;-60
2022/07/31 11:16:04;;;;;;;4.03;3.50;;;;;;;24.66;48.02;101511.94;5038694;28;20049;-61
2022/07/31 11:18:45;;;;;;;4.03;3.45;;;;;;;24.77;47.76;101507.88;5062273;28;20040;-61
2022/07/31 11:21:11;;;;;;;4.82;3.45;;;;;;;24.74;47.77;101502.13;5062573;28;20546;-60
2022/07/31 11:23:36;;;;;;;4.75;3.58;;;;;;;24.75;47.46;101509.09;5062129;28;20111;-61
2022/07/31 11:26:06;;;;;;;6.00;3.95;;;;;;;24.82;47.61;101494.00;5058783;28;20033;-61
2022/07/31 11:28:34;;;;;;;3.75;3.30;;;;;;;24.82;47.19;101492.16;5059415;28;20040;-60
2022/07/31 11:31:05;;;;;;;5.32;3.72;;;;;;;24.86;47.33;101487.25;5062255;28;20119;-61
2022/07/31 11:33:35;;;;;;;4.40;3.30;;;;;;;24.80;47.44;101488.03;5061717;28;20087;-61
2022/07/31 11:36:06;;;;;;;3.70;3.22;;;;;;;24.82;47.34;101486.81;5057169;28;20048;-61
2022/07/31 11:38:32;;;;;;;3.60;3.10;;;;;;;24.86;47.36;101485.41;5067119;28;20025;-61
2022/07/31 11:40:57;;;;;;;3.63;2.85;;;;;;;24.89;47.30;101489.50;5058073;28;20469;-61
2022/07/31 11:43:23;;;;;;;3.85;3.22;;;;;;;24.85;47.14;101488.28;5061723;28;20493;-60
2022/07/31 11:45:51;;;;;;;6.03;3.70;;;;;;;24.88;47.18;101487.88;5061864;28;20056;-60
2022/07/31 11:48:18;;;;;;;7.40;3.53;;;;;;;24.89;47.22;101476.19;5056977;28;20032;-60
2022/07/31 11:50:45;;;;;;;5.18;3.83;;;;;;;24.87;47.20;101478.25;5044071;28;20028;-60
2022/07/31 11:53:11;;;;;;;5.10;3.33;;;;;;;24.87;47.22;101480.91;5060002;28;20048;-61